Time;durP1;ratioP1;P1;durP2;ratioP2;P2;SDS_P1;SDS_P2;PMS_P1;PMS_P2;Temp;Humidity;BMP_temperature;BMP_pressure;BME280_temperature;BME280_humidity;BME280_pressure;Samples;Min_cycle;Max_cycle;Signal;HPM_P1;HPM_P2
2024/01/21 00:01:04;;;;;;;5.22;2.38;;;1.80;54.90;;;;;;5065959;28;20071;-65
2024/01/21 00:03:32;;;;;;;1.85;1.08;;;1.80;54.90;;;;;;5064108;28;20494;-65
2024/01/21 00:06:01;;;;;;;1.55;1.45;;;1.80;54.90;;;;;;5066233;28;20079;-64
2024/01/21 00:08:31;;;;;;;1.70;1.60;;;1.80;55.20;;;;;;5072742;28;20081;-64
2024/01/21 00:10:59;;;;;;;0.90;0.90;;;1.80;54.90;;;;;;5065628;28;20055;-63
2024/01/21 00:13:28;;;;;;;4.53;1.38;;;1.80;54.90;;;;;;5062573;28;20418;-65
2024/01/21 00:15:55;;;;;;;3.33;1.85;;;1.80;54.90;;;;;;5064629;28;20067;-64
2024/01/21 00:18:23;;;;;;;6.07;1.65;;;1.80;54.90;;;;;;5070342;28;20059;-64
2024/01/21 00:20:52;;;;;;;1.67;1.17;;;1.80;55.50;;;;;;5067292;28;20044;-65
2024/01/21 00:23:21;;;;;;;1.10;1.10;;;1.80;54.90;;;;;;5063953;28;20057;-64
2024/01/21 00:25:50;;;;;;;3.55;2.67;;;1.80;54.90;;;;;;5064410;28;20085;-65
2024/01/21 00:28:18;;;;;;;2.85;2.47;;;1.80;54.90;;;;;;5064804;28;20132;-64
2024/01/21 00:30:47;;;;;;;1.95;1.73;;;1.80;54.90;;;;;;5084421;28;20051;-64
2024/01/21 00:33:15;;;;;;;3.50;1.40;;;1.80;55.00;;;;;;5071691;28;20071;-65
2024/01/21 00:35:44;;;;;;;5.05;2.13;;;1.80;55.00;;;;;;5065688;28;20151;-66
2024/01/21 00:38:12;;;;;;;9.43;4.53;;;1.90;55.40;;;;;;5069316;28;20052;-77
2024/01/21 00:40:40;;;;;;;8.32;1.88;;;1.90;55.10;;;;;;5072555;28;20056;-65
2024/01/21 00:43:10;;;;;;;10.57;2.50;;;1.90;54.90;;;;;;5070278;28;20051;-65
2024/01/21 00:45:39;;;;;;;5.78;2.55;;;1.90;54.90;;;;;;5079142;28;20701;-63
2024/01/21 00:48:08;;;;;;;1.27;1.17;;;1.90;54.80;;;;;;5068488;28;20060;-65
2024/01/21 00:50:36;;;;;;;1.38;1.27;;;1.90;55.20;;;;;;5071764;28;20062;-64
2024/01/21 00:53:05;;;;;;;7.60;3.78;;;1.90;54.90;;;;;;5065806;28;20044;-64
2024/01/21 00:55:33;;;;;;;2.58;2.22;;;1.90;55.00;;;;;;5067254;28;20368;-65
2024/01/21 00:58:02;;;;;;;5.60;1.65;;;1.90;54.90;;;;;;5068547;28;20051;-64
2024/01/21 01:00:33;;;;;;;5.90;1.77;;;1.90;54.90;;;;;;5071535;27;20131;-66
2024/01/21 01:03:06;;;;;;;4.20;2.85;;;1.90;54.80;;;;;;5071267;28;20043;-65
2024/01/21 01:05:34;;;;;;;2.90;2.35;;;1.90;54.70;;;;;;5062072;28;20048;-65
2024/01/21 01:08:02;;;;;;;4.47;1.98;;;1.90;54.70;;;;;;5087412;28;20052;-65
2024/01/21 01:10:31;;;;;;;21.77;4.47;;;1.80;54.70;;;;;;5067683;28;20058;-65
2024/01/21 01:12:59;;;;;;;7.85;3.55;;;1.80;54.70;;;;;;5068090;28;20074;-63
2024/01/21 01:15:27;;;;;;;6.20;2.20;;;1.80;54.70;;;;;;5063393;28;20048;-63
2024/01/21 01:17:57;;;;;;;1.45;1.35;;;1.80;54.70;;;;;;5086256;27;20455;-66
2024/01/21 01:20:25;;;;;;;2.05;1.10;;;1.70;54.60;;;;;;5066712;28;20056;-66
2024/01/21 01:22:54;;;;;;;18.75;1.40;;;1.60;54.50;;;;;;5069077;28;20086;-66
2024/01/21 01:25:22;;;;;;;1.70;1.20;;;1.60;54.50;;;;;;5058020;28;20048;-64
2024/01/21 01:27:51;;;;;;;2.08;1.95;;;1.60;54.60;;;;;;5071708;28;20044;-64
2024/01/21 01:30:19;;;;;;;4.00;2.38;;;1.60;55.20;;;;;;5068316;28;20060;-63
2024/01/21 01:32:47;;;;;;;1.33;1.05;;;1.60;54.60;;;;;;5073387;27;20749;-64
2024/01/21 01:35:17;;;;;;;4.65;1.83;;;1.50;54.60;;;;;;5065702;28;20105;-66
2024/01/21 01:37:46;;;;;;;2.90;1.00;;;1.50;54.70;;;;;;5063873;28;20098;-65
2024/01/21 01:40:17;;;;;;;0.98;0.98;;;1.50;54.70;;;;;;5071219;28;20384;-64
2024/01/21 01:42:45;;;;;;;1.30;1.20;;;1.50;54.70;;;;;;5068321;28;20032;-65
2024/01/21 01:45:14;;;;;;;5.57;1.73;;;1.40;54.80;;;;;;5069736;28;20056;-64
2024/01/21 01:47:42;;;;;;;3.35;1.80;;;1.40;54.80;;;;;;5063735;28;21118;-64
2024/01/21 01:50:11;;;;;;;1.88;1.23;;;1.40;54.80;;;;;;5071551;28;20263;-64
2024/01/21 01:52:41;;;;;;;10.38;2.78;;;1.40;54.70;;;;;;5070170;28;20063;-65
2024/01/21 01:55:09;;;;;;;6.40;4.63;;;1.40;54.70;;;;;;5084783;28;20052;-64
2024/01/21 01:57:38;;;;;;;2.88;1.38;;;1.40;54.80;;;;;;5062403;28;20132;-66
2024/01/21 02:00:08;;;;;;;2.88;2.65;;;1.40;54.90;;;;;;5089151;28;20040;-65
2024/01/21 02:02:41;;;;;;;1.10;1.10;;;1.40;54.80;;;;;;5085658;28;20142;-67
2024/01/21 02:05:10;;;;;;;6.10;3.53;;;1.40;54.80;;;;;;5069531;28;20143;-65
2024/01/21 02:07:40;;;;;;;0.88;0.88;;;1.40;54.80;;;;;;5065500;28;20798;-65
2024/01/21 02:10:09;;;;;;;2.60;2.40;;;1.40;54.80;;;;;;5070666;28;20088;-64
2024/01/21 02:12:41;;;;;;;6.20;1.95;;;1.40;54.90;;;;;;5071509;28;20051;-64
2024/01/21 02:15:10;;;;;;;2.13;1.75;;;1.50;55.00;;;;;;5064049;28;20060;-65
2024/01/21 02:17:39;;;;;;;4.40;1.58;;;1.50;54.90;;;;;;5067435;28;20051;-65
2024/01/21 02:20:09;;;;;;;1.95;1.85;;;1.60;54.90;;;;;;5070385;28;20132;-65
2024/01/21 02:22:40;;;;;;;1.63;1.52;;;1.60;54.90;;;;;;5072193;28;20056;-64
2024/01/21 02:25:11;;;;;;;1.27;1.23;;;1.60;55.50;;;;;;5073842;28;20052;-65
2024/01/21 02:27:39;;;;;;;13.73;3.75;;;1.60;54.80;;;;;;5064972;28;20122;-65
2024/01/21 02:30:08;;;;;;;2.15;1.52;;;1.60;54.80;;;;;;5070746;28;20052;-65
2024/01/21 02:32:36;;;;;;;0.90;0.90;;;1.60;54.80;;;;;;5074620;28;20101;-66
2024/01/21 02:35:05;;;;;;;1.77;1.00;;;1.60;54.80;;;;;;5073062;28;20056;-64
2024/01/21 02:37:34;;;;;;;3.20;1.90;;;1.60;54.80;;;;;;5062508;28;20056;-64
2024/01/21 02:40:02;;;;;;;0.85;0.85;;;1.70;54.90;;;;;;5074403;28;21121;-64
2024/01/21 02:42:32;;;;;;;1.15;1.15;;;1.60;55.50;;;;;;5086046;27;20244;-65
2024/01/21 02:45:01;;;;;;;1.42;1.38;;;1.70;54.90;;;;;;5075670;28;20048;-64
2024/01/21 02:47:29;;;;;;;1.33;1.10;;;1.70;54.80;;;;;;5061049;28;20048;-65
2024/01/21 02:49:57;;;;;;;3.05;2.00;;;1.70;54.80;;;;;;5071836;28;20128;-65
2024/01/21 02:52:26;;;;;;;0.95;0.95;;;1.60;54.80;;;;;;5070754;28;20048;-65
2024/01/21 02:54:54;;;;;;;0.90;0.90;;;1.60;54.80;;;;;;5068365;28;20052;-66
2024/01/21 02:57:22;;;;;;;0.80;0.80;;;1.60;54.80;;;;;;5070885;28;20055;-66
2024/01/21 02:59:52;;;;;;;1.38;1.38;;;1.60;54.80;;;;;;5072981;28;20060;-65
2024/01/21 03:02:20;;;;;;;2.65;1.60;;;1.50;54.70;;;;;;5066220;28;20149;-64
2024/01/21 03:04:48;;;;;;;0.90;0.90;;;1.50;55.30;;;;;;5062992;28;20083;-64
2024/01/21 03:07:17;;;;;;;1.15;1.10;;;1.50;54.70;;;;;;5064274;28;20118;-63
2024/01/21 03:09:45;;;;;;;0.80;0.80;;;1.40;54.70;;;;;;5075807;28;20064;-65
2024/01/21 03:12:14;;;;;;;1.30;1.10;;;1.40;54.80;;;;;;5073469;28;20063;-63
2024/01/21 03:14:42;;;;;;;4.57;1.50;;;1.50;54.90;;;;;;5071032;28;20478;-65
2024/01/21 03:17:12;;;;;;;1.55;1.45;;;1.50;54.90;;;;;;5067867;28;20135;-63
2024/01/21 03:19:40;;;;;;;4.85;1.25;;;1.50;54.90;;;;;;5065444;28;20050;-63
2024/01/21 03:22:08;;;;;;;1.25;1.20;;;1.50;54.90;;;;;;5074822;28;20059;-65
2024/01/21 03:24:37;;;;;;;0.98;0.95;;;1.50;54.90;;;;;;5079212;28;20044;-65
2024/01/21 03:27:05;;;;;;;1.10;0.85;;;1.50;54.90;;;;;;5064837;28;20152;-64
2024/01/21 03:29:34;;;;;;;1.40;1.15;;;1.50;54.90;;;;;;5063806;28;20041;-63
2024/01/21 03:32:02;;;;;;;5.30;1.35;;;1.50;54.90;;;;;;5076234;28;20402;-63
2024/01/21 03:34:32;;;;;;;2.88;1.00;;;1.60;54.80;;;;;;5068422;28;20048;-64
2024/01/21 03:37:00;;;;;;;1.00;0.80;;;1.60;54.90;;;;;;5072635;28;20110;-64
2024/01/21 03:39:28;;;;;;;2.10;1.58;;;1.60;54.80;;;;;;5069943;27;20059;-64
2024/01/21 03:41:57;;;;;;;2.22;1.40;;;1.60;54.80;;;;;;5070938;28;20059;-64
2024/01/21 03:44:25;;;;;;;1.40;1.30;;;1.60;54.80;;;;;;5068034;28;20141;-65
2024/01/21 03:46:53;;;;;;;1.40;1.30;;;1.60;54.80;;;;;;5077402;28;20055;-63
2024/01/21 03:49:22;;;;;;;0.85;0.85;;;1.60;54.90;;;;;;5071187;28;20139;-69
2024/01/21 03:51:51;;;;;;;1.17;1.10;;;1.60;54.60;;;;;;5079180;28;20822;-64
2024/01/21 03:54:20;;;;;;;0.80;0.80;;;1.60;54.60;;;;;;5075530;27;20048;-63
2024/01/21 03:56:49;;;;;;;2.28;1.35;;;1.60;54.60;;;;;;5075846;28;20069;-63
2024/01/21 03:59:19;;;;;;;1.05;1.05;;;1.50;54.60;;;;;;5089352;27;20047;-64
2024/01/21 04:01:47;;;;;;;1.08;1.08;;;1.50;54.60;;;;;;5086360;28;20063;-64
2024/01/21 04:04:16;;;;;;;0.70;0.70;;;1.50;54.60;;;;;;5071470;28;20052;-63
2024/01/21 04:06:45;;;;;;;1.48;1.40;;;1.50;55.30;;;;;;5079934;28;20044;-65
2024/01/21 04:09:15;;;;;;;0.80;0.80;;;1.50;54.60;;;;;;5090340;28;20101;-64
2024/01/21 04:11:44;;;;;;;0.70;0.70;;;1.50;54.70;;;;;;5067465;28;20056;-64
2024/01/21 04:14:12;;;;;;;1.48;1.38;;;1.40;54.40;;;;;;5061934;28;20063;-65
2024/01/21 04:16:41;;;;;;;0.80;0.80;;;1.40;54.60;;;;;;5090268;28;20048;-64
2024/01/21 04:19:10;;;;;;;2.13;1.05;;;1.40;55.20;;;;;;5076074;28;20056;-65
2024/01/21 04:21:38;;;;;;;1.33;0.93;;;1.50;54.60;;;;;;5085976;28;20142;-64
2024/01/21 04:24:08;;;;;;;2.65;1.27;;;1.50;54.50;;;;;;5075463;28;20565;-64
2024/01/21 04:26:37;;;;;;;7.32;3.08;;;1.50;54.50;;;;;;5077302;28;20532;-65
2024/01/21 04:29:06;;;;;;;9.43;2.60;;;1.50;54.50;;;;;;5072707;28;20373;-64
2024/01/21 04:31:35;;;;;;;5.15;1.42;;;1.50;54.40;;;;;;5066258;28;20670;-63
2024/01/21 04:34:03;;;;;;;1.27;1.08;;;1.50;54.40;;;;;;5076484;28;20497;-65
2024/01/21 04:36:32;;;;;;;2.92;1.67;;;1.50;54.20;;;;;;5079739;28;20523;-66
2024/01/21 04:39:00;;;;;;;1.00;1.00;;;1.60;54.40;;;;;;5072759;28;20063;-66
2024/01/21 04:41:28;;;;;;;0.80;0.80;;;1.60;54.40;;;;;;5072850;28;20506;-64
2024/01/21 04:43:58;;;;;;;0.85;0.85;;;1.60;54.30;;;;;;5068303;28;20818;-63
2024/01/21 04:46:26;;;;;;;1.23;0.85;;;1.60;54.10;;;;;;5073402;28;20064;-64
2024/01/21 04:48:55;;;;;;;0.80;0.80;;;1.60;54.20;;;;;;5069880;28;20059;-63
2024/01/21 04:51:23;;;;;;;0.80;0.80;;;1.70;54.10;;;;;;5074897;28;20455;-63
2024/01/21 04:53:52;;;;;;;1.33;1.25;;;1.70;54.20;;;;;;5067631;28;20059;-64
2024/01/21 04:56:20;;;;;;;3.00;0.85;;;1.70;54.30;;;;;;5074941;28;20427;-64
2024/01/21 04:58:50;;;;;;;0.88;0.88;;;1.80;54.20;;;;;;5089527;28;20078;-64
2024/01/21 05:01:22;;;;;;;0.90;0.90;;;1.90;54.20;;;;;;5077423;28;20120;-65
2024/01/21 05:03:51;;;;;;;1.92;1.30;;;1.80;53.90;;;;;;5064542;28;20506;-82
2024/01/21 05:06:20;;;;;;;1.00;1.00;;;1.90;53.90;;;;;;5071524;28;20541;-65
2024/01/21 05:08:48;;;;;;;1.02;1.02;;;1.90;54.10;;;;;;5064785;28;20074;-64
2024/01/21 05:11:17;;;;;;;1.35;1.10;;;1.90;54.10;;;;;;5076756;27;20141;-65
2024/01/21 05:13:47;;;;;;;0.80;0.80;;;2.00;54.00;;;;;;5073869;28;20056;-63
2024/01/21 05:16:20;;;;;;;0.90;0.90;;;2.00;54.00;;;;;;5073636;28;20056;-64
2024/01/21 05:18:49;;;;;;;1.88;1.77;;;2.00;54.00;;;;;;5071502;28;20060;-65
2024/01/21 05:21:21;;;;;;;0.93;0.80;;;1.90;53.90;;;;;;5071128;28;20539;-65
2024/01/21 05:23:52;;;;;;;2.60;1.33;;;2.00;54.00;;;;;;5076493;28;20048;-64
2024/01/21 05:26:21;;;;;;;0.93;0.93;;;1.90;53.90;;;;;;5069885;28;20067;-65
2024/01/21 05:28:49;;;;;;;0.60;0.60;;;2.00;54.00;;;;;;5071798;28;20055;-64
2024/01/21 05:31:17;;;;;;;2.28;1.35;;;1.90;53.90;;;;;;5062150;28;20754;-65
2024/01/21 05:33:47;;;;;;;3.15;1.00;;;1.90;53.80;;;;;;5077108;28;20066;-66
2024/01/21 05:36:16;;;;;;;0.98;0.98;;;1.90;53.90;;;;;;5064523;28;22523;-66
2024/01/21 05:38:45;;;;;;;1.13;1.13;;;1.90;53.90;;;;;;5077434;28;20375;-64
2024/01/21 05:41:15;;;;;;;0.93;0.93;;;1.90;53.90;;;;;;5073610;28;20383;-64
2024/01/21 05:43:44;;;;;;;2.38;1.83;;;1.90;53.90;;;;;;5067932;28;20051;-62
2024/01/21 05:46:13;;;;;;;1.95;1.20;;;1.90;53.90;;;;;;5065943;28;20411;-65
2024/01/21 05:48:41;;;;;;;0.70;0.70;;;1.90;53.90;;;;;;5061833;28;20060;-63
2024/01/21 05:51:11;;;;;;;6.65;2.20;;;1.90;53.90;;;;;;5071871;28;20047;-64
2024/01/21 05:53:41;;;;;;;2.72;1.75;;;1.90;53.80;;;;;;5089912;28;20103;-65
2024/01/21 05:56:10;;;;;;;1.25;1.08;;;1.90;53.80;;;;;;5066744;28;20622;-63
2024/01/21 05:58:38;;;;;;;0.95;0.95;;;1.90;53.70;;;;;;5082020;28;20690;-64
2024/01/21 06:01:06;;;;;;;1.70;1.60;;;1.80;53.80;;;;;;5081397;28;20129;-64
2024/01/21 06:03:36;;;;;;;1.42;1.00;;;1.80;53.80;;;;;;5067452;28;20573;-64
2024/01/21 06:06:05;;;;;;;1.42;1.33;;;1.80;53.80;;;;;;5064881;28;20059;-67
2024/01/21 06:08:34;;;;;;;17.20;3.20;;;1.80;53.90;;;;;;5081603;28;20048;-65
2024/01/21 06:11:03;;;;;;;0.90;0.90;;;1.80;53.90;;;;;;5078786;28;20090;-64
2024/01/21 06:13:32;;;;;;;1.02;1.02;;;1.80;54.00;;;;;;5094627;28;20048;-63
2024/01/21 06:16:01;;;;;;;2.15;2.00;;;1.80;53.90;;;;;;5080175;27;20483;-64
2024/01/21 06:18:29;;;;;;;1.42;1.33;;;1.80;54.10;;;;;;5074538;28;20059;-77
2024/01/21 06:20:58;;;;;;;1.75;1.65;;;1.90;54.10;;;;;;5070135;28;20519;-64
2024/01/21 06:23:27;;;;;;;1.00;1.00;;;1.90;54.00;;;;;;5066984;28;20060;-64
2024/01/21 06:25:56;;;;;;;0.93;0.93;;;1.90;54.20;;;;;;5091200;27;20109;-62
2024/01/21 06:28:25;;;;;;;0.80;0.80;;;1.90;54.00;;;;;;5076226;28;20142;-63
2024/01/21 06:30:53;;;;;;;0.70;0.70;;;2.00;54.00;;;;;;5076023;28;20277;-65
2024/01/21 06:33:23;;;;;;;0.70;0.70;;;2.00;54.00;;;;;;5073641;28;20056;-65
2024/01/21 06:35:52;;;;;;;1.85;1.38;;;2.10;54.00;;;;;;5077319;28;20055;-63
2024/01/21 06:38:20;;;;;;;1.65;1.55;;;2.10;53.90;;;;;;5070736;28;20040;-65
2024/01/21 06:40:49;;;;;;;0.98;0.98;;;2.20;54.00;;;;;;5080862;28;20136;-67
2024/01/21 06:43:19;;;;;;;1.85;0.93;;;2.20;53.90;;;;;;5067468;28;20056;-63
2024/01/21 06:45:47;;;;;;;1.40;1.30;;;2.30;53.90;;;;;;5073857;28;20047;-64
2024/01/21 06:48:15;;;;;;;0.90;0.90;;;2.30;53.80;;;;;;5079877;28;20052;-65
2024/01/21 06:50:48;;;;;;;1.27;1.20;;;2.30;53.70;;;;;;5078075;28;20138;-66
2024/01/21 06:53:16;;;;;;;1.10;1.10;;;2.30;53.70;;;;;;5072196;28;20115;-79
2024/01/21 06:55:45;;;;;;;1.45;1.35;;;2.20;53.60;;;;;;5074979;28;20127;-65
2024/01/21 06:58:13;;;;;;;1.00;1.00;;;2.20;53.60;;;;;;5084553;28;20574;-64
2024/01/21 07:00:45;;;;;;;1.05;1.05;;;2.20;53.90;;;;;;5072563;27;20761;-63
2024/01/21 07:03:14;;;;;;;1.15;1.10;;;2.10;53.60;;;;;;5076125;28;20569;-64
2024/01/21 07:05:42;;;;;;;22.90;1.88;;;2.10;53.60;;;;;;5076365;27;20051;-66
2024/01/21 07:08:11;;;;;;;2.42;1.80;;;2.10;53.60;;;;;;5091635;27;20114;-64
2024/01/21 07:10:42;;;;;;;0.70;0.70;;;2.10;53.80;;;;;;5077260;28;20064;-64
2024/01/21 07:13:11;;;;;;;2.63;1.10;;;2.10;53.30;;;;;;5078491;28;20127;-64
2024/01/21 07:15:40;;;;;;;0.95;0.95;;;2.10;53.70;;;;;;5080018;28;20456;-64
2024/01/21 07:18:12;;;;;;;0.88;0.88;;;2.20;53.70;;;;;;5086436;28;20055;-75
2024/01/21 07:20:41;;;;;;;1.02;1.02;;;2.20;53.70;;;;;;5074033;27;20067;-63
2024/01/21 07:23:10;;;;;;;1.42;1.33;;;2.20;53.60;;;;;;5069972;28;20482;-64
2024/01/21 07:25:38;;;;;;;1.38;1.27;;;2.30;53.60;;;;;;5077951;28;20604;-64
2024/01/21 07:28:07;;;;;;;7.47;1.55;;;2.30;53.60;;;;;;5076157;28;20091;-66
2024/01/21 07:30:36;;;;;;;1.90;1.80;;;2.30;53.60;;;;;;5067760;28;20459;-75
2024/01/21 07:33:05;;;;;;;6.15;2.05;;;2.40;53.60;;;;;;5073615;28;20144;-64
2024/01/21 07:35:35;;;;;;;2.22;1.20;;;2.40;53.50;;;;;;5066819;28;20789;-65
2024/01/21 07:38:03;;;;;;;2.15;1.60;;;2.40;53.50;;;;;;5071024;27;20056;-65
2024/01/21 07:40:32;;;;;;;0.80;0.80;;;2.50;53.50;;;;;;5071975;28;20135;-64
2024/01/21 07:43:00;;;;;;;0.90;0.90;;;2.50;53.30;;;;;;5064333;28;20052;-65
2024/01/21 07:45:29;;;;;;;1.02;1.02;;;2.60;53.50;;;;;;5068214;28;20549;-66
2024/01/21 07:47:58;;;;;;;1.65;1.25;;;2.70;53.40;;;;;;5077177;28;20040;-65
2024/01/21 07:50:27;;;;;;;0.70;0.70;;;2.80;53.40;;;;;;5088257;28;20419;-64
2024/01/21 07:52:57;;;;;;;0.90;0.90;;;2.90;53.30;;;;;;5071567;28;20044;-64
2024/01/21 07:55:25;;;;;;;2.65;1.50;;;3.00;53.30;;;;;;5072660;28;20071;-65
2024/01/21 07:57:53;;;;;;;1.80;1.48;;;3.10;53.40;;;;;;5069695;28;20529;-65
2024/01/21 08:00:23;;;;;;;0.75;0.75;;;3.10;53.30;;;;;;5072831;28;20052;-64
2024/01/21 08:02:52;;;;;;;1.05;1.05;;;3.20;53.40;;;;;;5073694;28;20055;-65
2024/01/21 08:05:21;;;;;;;1.63;1.48;;;3.30;53.30;;;;;;5074705;28;20052;-74
2024/01/21 08:07:49;;;;;;;3.05;1.40;;;3.30;53.10;;;;;;5064419;28;20569;-64
2024/01/21 08:10:19;;;;;;;1.13;1.02;;;3.40;53.10;;;;;;5069567;28;20067;-61
2024/01/21 08:12:47;;;;;;;0.75;0.75;;;3.40;53.10;;;;;;5066883;28;20221;-65
2024/01/21 08:15:18;;;;;;;1.20;1.02;;;3.60;53.50;;;;;;5068675;28;20094;-64
2024/01/21 08:17:47;;;;;;;4.13;2.38;;;3.70;53.40;;;;;;5072285;28;20071;-66
2024/01/21 08:20:15;;;;;;;0.70;0.70;;;3.70;53.10;;;;;;5076313;28;20048;-64
2024/01/21 08:22:44;;;;;;;2.40;0.90;;;3.80;53.10;;;;;;5069602;28;20044;-64
2024/01/21 08:25:14;;;;;;;2.75;1.00;;;3.80;53.00;;;;;;5073936;28;20064;-65
2024/01/21 08:27:45;;;;;;;7.03;1.65;;;3.90;53.00;;;;;;5071954;28;20554;-65
2024/01/21 08:30:14;;;;;;;0.85;0.85;;;4.00;52.90;;;;;;5074715;28;20080;-64
2024/01/21 08:32:42;;;;;;;2.95;1.60;;;4.00;53.00;;;;;;5067901;28;20080;-63
2024/01/21 08:35:11;;;;;;;1.75;1.30;;;4.00;53.00;;;;;;5066278;28;20064;-78
2024/01/21 08:37:41;;;;;;;0.88;0.88;;;4.10;53.00;;;;;;5088403;27;20056;-62
2024/01/21 08:40:12;;;;;;;1.67;1.25;;;4.20;53.00;;;;;;5075730;28;20812;-63
2024/01/21 08:42:41;;;;;;;5.20;1.75;;;4.20;53.00;;;;;;5080913;27;20047;-62
2024/01/21 08:45:13;;;;;;;2.35;1.65;;;4.40;53.20;;;;;;5067057;27;20131;-64
2024/01/21 08:47:42;;;;;;;10.75;1.60;;;4.50;53.30;;;;;;5085820;28;20098;-62
2024/01/21 08:50:11;;;;;;;6.22;1.10;;;4.70;53.80;;;;;;5078875;28;20524;-64
2024/01/21 08:52:39;;;;;;;1.60;1.50;;;4.90;53.80;;;;;;5091712;28;20051;-63
2024/01/21 08:55:08;;;;;;;1.33;1.00;;;5.10;54.00;;;;;;5066216;28;20059;-62
2024/01/21 08:57:37;;;;;;;2.38;1.42;;;5.30;54.20;;;;;;5077177;28;20142;-62
2024/01/21 09:00:08;;;;;;;27.40;1.85;;;5.50;54.30;;;;;;5076168;28;20052;-62
2024/01/21 09:02:41;;;;;;;1.20;0.93;;;5.70;54.30;;;;;;5079274;28;20125;-63
2024/01/21 09:05:09;;;;;;;5.25;0.75;;;5.90;54.20;;;;;;5058386;28;20052;-64
2024/01/21 09:07:38;;;;;;;3.03;1.20;;;6.10;54.10;;;;;;5071207;28;20141;-64
2024/01/21 09:10:08;;;;;;;1.45;0.88;;;6.30;53.90;;;;;;5068120;28;20086;-63
2024/01/21 09:12:39;;;;;;;1.40;1.02;;;6.50;54.00;;;;;;5074726;28;20060;-62
2024/01/21 09:15:09;;;;;;;2.35;1.30;;;6.60;53.40;;;;;;5069451;28;20143;-64
2024/01/21 09:17:41;;;;;;;0.90;0.90;;;6.80;53.20;;;;;;5090733;28;20060;-64
2024/01/21 09:20:11;;;;;;;17.88;2.55;;;6.90;53.20;;;;;;5077567;28;20074;-65
2024/01/21 09:22:39;;;;;;;5.18;1.73;;;7.10;53.50;;;;;;5070485;28;20044;-63
2024/01/21 09:25:08;;;;;;;4.88;1.77;;;7.40;53.70;;;;;;5065555;28;20077;-65
2024/01/21 09:27:39;;;;;;;3.92;2.33;;;7.70;53.80;;;;;;5087274;28;20138;-63
2024/01/21 09:30:09;;;;;;;4.10;1.15;;;7.90;53.50;;;;;;5080774;28;20051;-62
2024/01/21 09:32:37;;;;;;;5.47;2.03;;;8.20;53.50;;;;;;5065452;28;20135;-65
2024/01/21 09:35:09;;;;;;;0.60;0.60;;;8.50;53.30;;;;;;5070344;28;20107;-67
2024/01/21 09:37:37;;;;;;;2.92;1.45;;;8.70;53.10;;;;;;5068076;28;20126;-63
2024/01/21 09:40:07;;;;;;;4.40;1.67;;;8.90;53.00;;;;;;5079000;28;20060;-64
2024/01/21 09:42:39;;;;;;;2.15;1.33;;;9.10;52.70;;;;;;5072679;28;20064;-65
2024/01/21 09:45:10;;;;;;;2.83;0.98;;;9.40;52.60;;;;;;5065096;28;20710;-66
2024/01/21 09:47:39;;;;;;;11.95;1.75;;;9.80;52.60;;;;;;5069520;28;20083;-64
2024/01/21 09:50:12;;;;;;;5.00;1.40;;;9.80;52.90;;;;;;5069744;28;20367;-61
2024/01/21 09:52:40;;;;;;;10.65;1.33;;;10.30;52.20;;;;;;5073983;28;20113;-60
2024/01/21 09:55:10;;;;;;;5.32;1.13;;;10.60;51.50;;;;;;5079261;28;20048;-62
2024/01/21 09:57:38;;;;;;;2.58;1.45;;;11.00;50.70;;;;;;5071482;28;20071;-64
2024/01/21 10:00:08;;;;;;;4.47;1.83;;;11.40;50.30;;;;;;5070488;28;20139;-64
2024/01/21 10:02:39;;;;;;;1.92;0.90;;;11.90;49.90;;;;;;5068104;28;20052;-61
2024/01/21 10:05:10;;;;;;;5.55;1.95;;;12.30;49.20;;;;;;5065058;28;20059;-61
2024/01/21 10:07:40;;;;;;;1.25;1.10;;;12.80;48.50;;;;;;5070242;28;20066;-62
2024/01/21 10:10:12;;;;;;;9.38;1.63;;;13.30;48.10;;;;;;5075411;28;20075;-62
2024/01/21 10:12:42;;;;;;;3.67;1.83;;;13.60;47.20;;;;;;5071231;28;20048;-79
2024/01/21 10:15:14;;;;;;;3.38;1.15;;;13.80;46.80;;;;;;5065280;28;20101;-62
2024/01/21 10:17:43;;;;;;;29.05;1.88;;;14.10;46.60;;;;;;5078505;28;20055;-62
2024/01/21 10:20:13;;;;;;;5.45;2.85;;;14.50;46.50;;;;;;5074288;28;20098;-62
2024/01/21 10:22:44;;;;;;;7.82;1.20;;;15.10;46.80;;;;;;5074432;28;20056;-61
2024/01/21 10:25:14;;;;;;;16.83;1.60;;;15.80;46.00;;;;;;5085829;28;20508;-62
2024/01/21 10:27:47;;;;;;;20.50;2.80;;;16.30;45.00;;;;;;5074607;28;21456;-61
2024/01/21 10:30:15;;;;;;;2.47;1.40;;;16.40;43.80;;;;;;5080751;28;20059;-60
2024/01/21 10:32:44;;;;;;;10.07;2.03;;;16.30;43.40;;;;;;5072175;28;20143;-62
2024/01/21 10:35:14;;;;;;;11.15;2.00;;;16.10;43.40;;;;;;5071953;28;20070;-64
2024/01/21 10:37:43;;;;;;;2.42;1.20;;;16.00;43.50;;;;;;5085088;27;20048;-61
2024/01/21 10:40:12;;;;;;;10.00;2.35;;;15.90;44.20;;;;;;5080333;27;20064;-62
2024/01/21 10:42:41;;;;;;;10.68;2.72;;;15.90;43.70;;;;;;5079425;28;20443;-59
2024/01/21 10:45:11;;;;;;;11.27;3.38;;;16.10;43.90;;;;;;5073421;28;20079;-62
2024/01/21 10:47:41;;;;;;;2.88;2.03;;;16.30;42.90;;;;;;5071469;28;20061;-59
2024/01/21 10:50:11;;;;;;;1.20;1.00;;;16.20;42.40;;;;;;5088893;27;20375;-60
2024/01/21 10:52:44;;;;;;;6.30;2.65;;;16.00;41.90;;;;;;5085578;28;20117;-64
2024/01/21 10:55:13;;;;;;;12.02;3.30;;;15.70;42.10;;;;;;5071618;28;20060;-62
2024/01/21 10:57:42;;;;;;;20.08;4.22;;;15.60;42.50;;;;;;5084055;28;20060;-63
2024/01/21 11:00:12;;;;;;;4.13;1.83;;;15.50;42.60;;;;;;5081174;28;20092;-63
2024/01/21 11:02:40;;;;;;;9.75;3.63;;;15.50;42.60;;;;;;5074004;28;20055;-62
2024/01/21 11:05:11;;;;;;;6.32;1.48;;;15.40;42.80;;;;;;5074312;28;20622;-64
2024/01/21 11:07:43;;;;;;;32.20;6.90;;;15.30;42.70;;;;;;5076198;28;20170;-64
2024/01/21 11:10:11;;;;;;;5.72;1.90;;;15.00;42.20;;;;;;5072985;28;20064;-61
2024/01/21 11:12:40;;;;;;;5.70;2.05;;;14.60;42.10;;;;;;5080451;28;20077;-62
2024/01/21 11:15:30;;;;;;;2.28;1.45;;;14.00;42.20;;;;;;5072325;27;20052;-63
2024/01/21 11:18:11;;;;;;;3.78;1.45;;;13.50;42.80;;;;;;5081588;28;20055;-70
2024/01/21 11:20:40;;;;;;;23.52;2.58;;;13.20;43.40;;;;;;5076946;28;20578;-64
2024/01/21 11:23:17;;;;;;;1.13;1.00;;;12.90;44.00;;;;;;5065427;28;20608;-64
2024/01/21 11:25:51;;;;;;;9.52;3.05;;;12.60;43.90;;;;;;5072217;28;20075;-63
2024/01/21 11:28:30;;;;;;;13.15;2.88;;;12.20;43.80;;;;;;5091135;27;20080;-65
2024/01/21 11:31:03;;;;;;;9.27;1.98;;;11.90;43.80;;;;;;5075796;28;20051;-65
2024/01/21 11:33:31;;;;;;;12.23;2.33;;;11.50;44.40;;;;;;5070807;28;20048;-61
2024/01/21 11:36:01;;;;;;;14.35;2.45;;;11.30;45.10;;;;;;5066110;28;20053;-62
2024/01/21 11:38:30;;;;;;;4.75;1.17;;;11.10;45.00;;;;;;5073639;28;20062;-60
2024/01/21 11:41:07;;;;;;;4.47;1.77;;;10.80;45.00;;;;;;5076395;28;20062;-60
2024/01/21 11:43:36;;;;;;;11.43;1.38;;;10.60;45.30;;;;;;5068313;28;20502;-60
2024/01/21 11:46:05;;;;;;;9.65;3.40;;;10.50;45.70;;;;;;5079959;28;20052;-60
2024/01/21 11:48:33;;;;;;;2.22;1.08;;;10.30;45.60;;;;;;5082763;28;20178;-62
2024/01/21 11:51:02;;;;;;;2.35;1.13;;;10.10;45.70;;;;;;5073254;28;20067;-61
2024/01/21 11:53:32;;;;;;;9.88;2.17;;;10.00;46.20;;;;;;5070152;27;20052;-60
2024/01/21 11:56:00;;;;;;;10.60;3.08;;;9.90;45.90;;;;;;5075576;28;20054;-60
2024/01/21 11:58:28;;;;;;;2.58;1.88;;;9.90;46.10;;;;;;5078763;28;20052;-60
2024/01/21 12:00:57;;;;;;;12.02;2.45;;;9.80;46.30;;;;;;5093053;27;20060;-59
2024/01/21 12:03:25;;;;;;;12.50;1.42;;;9.90;46.40;;;;;;5072543;27;20044;-60
2024/01/21 12:05:54;;;;;;;37.17;4.50;;;9.90;46.50;;;;;;5071291;27;20058;-60
2024/01/21 12:08:22;;;;;;;2.78;1.73;;;9.90;46.50;;;;;;5079237;28;20052;-61
2024/01/21 12:10:52;;;;;;;34.58;5.90;;;9.90;46.60;;;;;;5078039;28;20139;-59
2024/01/21 12:13:21;;;;;;;10.27;1.50;;;9.90;46.60;;;;;;5067520;28;20059;-60
2024/01/21 12:15:50;;;;;;;8.07;1.77;;;9.90;46.10;;;;;;5077007;27;20074;-59
2024/01/21 12:18:19;;;;;;;23.02;1.98;;;9.90;46.30;;;;;;5068754;28;20076;-59
2024/01/21 12:20:48;;;;;;;8.98;1.98;;;9.80;46.30;;;;;;5081255;27;20067;-60
2024/01/21 12:23:21;;;;;;;4.07;1.92;;;9.80;46.10;;;;;;5066359;28;20059;-60
2024/01/21 12:25:50;;;;;;;14.10;5.18;;;9.80;46.30;;;;;;5079611;28;20047;-61
2024/01/21 12:28:23;;;;;;;26.48;5.32;;;10.00;47.00;;;;;;5091414;27;20044;-62
2024/01/21 12:30:51;;;;;;;11.18;3.40;;;9.90;46.80;;;;;;5077745;28;20451;-59
2024/01/21 12:33:20;;;;;;;14.13;3.08;;;10.00;46.70;;;;;;5059572;28;20071;-60
2024/01/21 12:35:48;;;;;;;2.35;1.35;;;10.00;46.50;;;;;;5072937;28;20087;-63
2024/01/21 12:38:17;;;;;;;22.00;1.92;;;10.00;46.40;;;;;;5093306;27;20164;-59
2024/01/21 12:40:46;;;;;;;2.67;1.65;;;10.00;46.50;;;;;;5067115;28;20118;-62
2024/01/21 12:43:16;;;;;;;1.70;1.30;;;10.00;46.60;;;;;;5074391;27;20425;-61
2024/01/21 12:45:46;;;;;;;24.92;2.78;;;10.10;46.60;;;;;;5066326;27;20064;-63
2024/01/21 12:48:14;;;;;;;20.13;1.67;;;10.20;46.80;;;;;;5067694;28;20060;-67
2024/01/21 12:50:45;;;;;;;14.77;1.50;;;10.30;46.60;;;;;;5077745;28;20484;-61
2024/01/21 12:53:13;;;;;;;1.13;0.75;;;10.30;46.50;;;;;;5069106;28;20043;-60
2024/01/21 12:55:42;;;;;;;4.13;1.70;;;10.40;46.20;;;;;;5074643;28;20064;-61
2024/01/21 12:58:12;;;;;;;1.10;1.00;;;10.30;46.10;;;;;;5074292;28;20171;-62
2024/01/21 13:00:40;;;;;;;2.95;1.48;;;10.40;46.30;;;;;;5099483;27;20109;-61
2024/01/21 13:03:12;;;;;;;9.48;1.70;;;10.40;46.30;;;;;;5074311;28;20059;-61